createdAt,value
2023-06-10T00:00:35.392Z,16.20
2023-06-10T00:03:25.301Z,16.18
2023-06-10T00:05:54.789Z,16.22
2023-06-10T00:08:23.230Z,16.25
2023-06-10T00:10:51.363Z,16.29
2023-06-10T00:13:19.691Z,16.32
2023-06-10T00:15:47.902Z,16.34
2023-06-10T00:18:16.823Z,16.38
2023-06-10T00:20:45.046Z,16.42
2023-06-10T00:23:13.204Z,16.45
2023-06-10T00:25:41.524Z,16.45
2023-06-10T00:28:09.635Z,16.47
2023-06-10T00:30:37.704Z,16.51
2023-06-10T00:33:06.260Z,16.55
2023-06-10T00:35:38.053Z,16.56
2023-06-10T00:38:06.609Z,16.57
2023-06-10T00:40:40.955Z,16.62
2023-06-10T00:43:09.575Z,16.63
2023-06-10T00:45:37.897Z,16.61
2023-06-10T00:48:06.659Z,16.63
2023-06-10T00:50:35.847Z,16.64
2023-06-10T00:53:04.128Z,16.64
2023-06-10T00:55:33.926Z,16.62
2023-06-10T00:58:05.096Z,16.61
2023-06-10T01:00:35.060Z,16.61
2023-06-10T01:03:09.095Z,16.62
2023-06-10T01:05:39.233Z,16.57
2023-06-10T01:08:18.654Z,16.50
2023-06-10T01:10:54.465Z,16.49
2023-06-10T01:13:29.955Z,16.46
2023-06-10T01:16:00.242Z,16.45
2023-06-10T01:18:32.494Z,16.40
2023-06-10T01:21:02.009Z,16.36
2023-06-10T01:23:30.761Z,16.31
2023-06-10T01:26:08.457Z,16.22
2023-06-10T01:29:13.256Z,16.16
2023-06-10T01:31:55.299Z,16.05
2023-06-10T01:34:26.005Z,16.00
2023-06-10T01:36:58.521Z,15.99
2023-06-10T01:39:27.641Z,15.96
2023-06-10T01:41:57.551Z,15.96
2023-06-10T01:44:25.897Z,15.93
2023-06-10T01:46:54.097Z,15.92
2023-06-10T01:49:25.237Z,15.92
2023-06-10T01:51:53.381Z,15.92
2023-06-10T01:54:21.481Z,15.91
2023-06-10T01:56:49.908Z,15.90
2023-06-10T01:59:18.167Z,15.88
2023-06-10T02:01:46.386Z,15.88
2023-06-10T02:04:15.092Z,15.87
2023-06-10T02:06:45.839Z,15.88
2023-06-10T02:09:13.934Z,15.90
2023-06-10T02:11:42.042Z,15.89
2023-06-10T02:14:10.230Z,15.89
2023-06-10T02:16:39.191Z,15.89
2023-06-10T02:19:08.751Z,15.89
2023-06-10T02:21:37.669Z,15.89
2023-06-10T02:24:06.783Z,15.90
2023-06-10T02:26:36.998Z,15.92
2023-06-10T02:29:05.250Z,15.91
2023-06-10T02:31:36.569Z,15.93
2023-06-10T02:34:05.880Z,15.96
2023-06-10T02:36:36.871Z,15.98
2023-06-10T02:39:05.825Z,15.99
2023-06-10T02:41:37.265Z,16.01
2023-06-10T02:44:06.452Z,16.02
2023-06-10T02:46:36.008Z,16.03
2023-06-10T02:49:05.346Z,16.03
2023-06-10T02:51:33.591Z,16.03
2023-06-10T02:54:03.222Z,16.04
2023-06-10T02:56:32.651Z,16.05
2023-06-10T02:59:02.090Z,16.04
2023-06-10T03:01:32.828Z,15.97
2023-06-10T03:04:07.540Z,16.05
2023-06-10T03:06:36.752Z,16.08
2023-06-10T03:09:14.869Z,16.10
2023-06-10T03:11:49.678Z,16.12
2023-06-10T03:14:18.047Z,16.14
2023-06-10T03:16:46.692Z,16.10
2023-06-10T03:19:15.509Z,16.08
2023-06-10T03:21:46.087Z,16.09
2023-06-10T03:24:15.686Z,16.08
2023-06-10T03:26:44.168Z,16.05
2023-06-10T03:29:12.730Z,16.05
2023-06-10T03:31:41.340Z,16.07
2023-06-10T03:34:10.265Z,16.02
2023-06-10T03:36:39.802Z,16.04
2023-06-10T03:39:08.042Z,16.06
2023-06-10T03:41:36.606Z,16.03
2023-06-10T03:44:05.321Z,16.06
2023-06-10T03:46:33.757Z,16.11
2023-06-10T03:49:02.808Z,16.17
2023-06-10T03:51:31.696Z,16.25
2023-06-10T03:54:00.384Z,16.34
2023-06-10T03:56:29.575Z,16.38
2023-06-10T03:58:57.782Z,16.47
2023-06-10T04:01:26.103Z,16.53
2023-06-10T04:03:55.490Z,16.55
2023-06-10T04:06:26.635Z,16.62
2023-06-10T04:08:58.356Z,16.70
2023-06-10T04:11:28.127Z,16.77
2023-06-10T04:13:57.497Z,16.80
2023-06-10T04:16:26.618Z,16.76
2023-06-10T04:18:55.841Z,16.75
2023-06-10T04:21:25.869Z,16.78
2023-06-10T04:23:55.154Z,16.79
2023-06-10T04:26:26.336Z,16.73
2023-06-10T04:28:54.846Z,16.78
2023-06-10T04:31:23.683Z,16.75
2023-06-10T04:33:51.896Z,16.82
2023-06-10T04:36:20.234Z,16.94
2023-06-10T04:38:48.580Z,17.06
2023-06-10T04:41:19.227Z,17.17
2023-06-10T04:43:47.572Z,17.30
2023-06-10T04:46:16.658Z,17.41
2023-06-10T04:48:47.695Z,17.51
2023-06-10T04:51:16.120Z,17.57
2023-06-10T04:53:44.409Z,17.66
2023-06-10T04:56:14.179Z,17.75
2023-06-10T04:58:42.998Z,17.77
2023-06-10T05:01:11.390Z,17.96
2023-06-10T05:03:39.713Z,18.09
2023-06-10T05:06:07.960Z,18.18
2023-06-10T05:08:36.382Z,18.17
2023-06-10T05:11:04.595Z,18.14
2023-06-10T05:13:33.125Z,18.17
2023-06-10T05:16:01.479Z,18.29
2023-06-10T05:18:29.674Z,18.47
2023-06-10T05:20:58.036Z,18.61
2023-06-10T05:23:26.198Z,18.71
2023-06-10T05:25:54.389Z,18.89
2023-06-10T05:28:22.656Z,18.84
2023-06-10T05:30:51.015Z,18.83
2023-06-10T05:33:19.504Z,18.82
2023-06-10T05:35:47.679Z,19.03
2023-06-10T05:38:17.812Z,19.25
2023-06-10T05:40:47.576Z,19.08
2023-06-10T05:43:17.845Z,19.05
2023-06-10T05:45:46.029Z,19.06
2023-06-10T05:48:15.409Z,19.19
2023-06-10T05:50:49.278Z,19.26
2023-06-10T05:53:17.680Z,19.18
2023-06-10T05:55:47.053Z,19.09
2023-06-10T05:58:15.883Z,19.09
2023-06-10T06:00:44.210Z,19.08
2023-06-10T06:03:14.165Z,19.05
2023-06-10T06:05:43.485Z,19.00
2023-06-10T06:08:11.779Z,18.81
2023-06-10T06:10:40.429Z,18.80
2023-06-10T06:13:08.709Z,18.84
2023-06-10T06:15:36.956Z,18.73
2023-06-10T06:18:05.359Z,18.74
2023-06-10T06:20:34.190Z,18.88
2023-06-10T06:23:03.110Z,18.92
2023-06-10T06:25:31.549Z,18.86
2023-06-10T06:27:59.977Z,18.93
2023-06-10T06:30:30.212Z,19.04
2023-06-10T06:32:58.433Z,19.20
2023-06-10T06:35:26.939Z,19.33
2023-06-10T06:37:56.147Z,19.49
2023-06-10T06:40:27.194Z,19.57
2023-06-10T06:42:56.631Z,19.68
2023-06-10T06:45:46.233Z,19.61
2023-06-10T06:48:15.907Z,19.56
2023-06-10T06:50:44.528Z,19.67
2023-06-10T06:53:12.841Z,19.67
2023-06-10T06:55:40.988Z,19.89
2023-06-10T06:58:09.372Z,20.03
2023-06-10T07:00:40.559Z,20.14
2023-06-10T07:03:08.948Z,20.17
2023-06-10T07:05:39.446Z,20.33
2023-06-10T07:08:09.537Z,20.18
2023-06-10T07:10:38.371Z,20.36
2023-06-10T07:13:08.087Z,20.51
2023-06-10T07:15:37.826Z,20.49
2023-06-10T07:18:07.125Z,20.53
2023-06-10T07:20:35.477Z,20.45
2023-06-10T07:23:06.840Z,20.53
2023-06-10T07:25:35.021Z,20.80
2023-06-10T07:28:04.537Z,21.03
2023-06-10T07:30:32.906Z,21.03
2023-06-10T07:33:04.012Z,21.27
2023-06-10T07:35:33.482Z,21.43
2023-06-10T07:38:01.779Z,21.56
2023-06-10T07:40:30.914Z,21.70
2023-06-10T07:43:00.831Z,21.71
2023-06-10T07:45:31.634Z,21.86
2023-06-10T07:47:59.847Z,21.92
2023-06-10T07:50:28.378Z,22.07
2023-06-10T07:52:56.710Z,22.10
2023-06-10T07:55:27.105Z,22.15
2023-06-10T07:57:56.042Z,22.34
2023-06-10T08:00:25.167Z,22.36
2023-06-10T08:02:54.486Z,22.18
2023-06-10T08:05:23.642Z,22.33
2023-06-10T08:07:51.795Z,22.49
2023-06-10T08:10:20.249Z,22.71
2023-06-10T08:12:48.657Z,22.66
2023-06-10T08:15:18.211Z,22.76
2023-06-10T08:17:49.345Z,22.95
2023-06-10T08:20:19.108Z,22.93
2023-06-10T08:22:47.586Z,23.17
2023-06-10T08:25:16.205Z,23.11
2023-06-10T08:27:44.957Z,22.99
2023-06-10T08:30:17.871Z,23.28
2023-06-10T08:32:46.321Z,23.39
2023-06-10T08:35:14.845Z,23.43
2023-06-10T08:37:42.950Z,23.61
2023-06-10T08:40:12.730Z,23.90
2023-06-10T08:42:48.724Z,24.14
2023-06-10T08:45:19.900Z,24.30
2023-06-10T08:47:55.223Z,24.38
2023-06-10T08:50:40.102Z,24.15
2023-06-10T08:53:09.581Z,24.24
2023-06-10T08:55:39.666Z,24.50
2023-06-10T08:58:09.472Z,24.61
2023-06-10T09:00:38.321Z,24.72
2023-06-10T09:03:10.205Z,24.95
2023-06-10T09:05:39.436Z,25.07
2023-06-10T09:08:09.080Z,25.03
2023-06-10T09:10:38.039Z,25.18
2023-06-10T09:13:06.735Z,25.54
2023-06-10T09:15:35.235Z,25.47
2023-06-10T09:18:03.763Z,25.58
2023-06-10T09:20:32.267Z,25.87
2023-06-10T09:23:03.390Z,26.38
2023-06-10T09:25:41.084Z,26.63
2023-06-10T09:28:16.615Z,26.57
2023-06-10T09:30:45.096Z,26.78
2023-06-10T09:33:17.158Z,26.61
2023-06-10T09:35:51.817Z,26.72
2023-06-10T09:38:24.330Z,26.85
2023-06-10T09:40:53.967Z,26.61
2023-06-10T09:43:23.465Z,26.80
2023-06-10T09:45:55.155Z,27.42
2023-06-10T09:48:24.890Z,27.52
2023-06-10T09:50:53.564Z,27.52
2023-06-10T09:53:22.492Z,26.95
2023-06-10T09:55:53.297Z,26.88
2023-06-10T09:58:36.058Z,27.04
2023-06-10T10:01:12.879Z,26.79
2023-06-10T10:03:48.974Z,26.46
2023-06-10T10:06:20.390Z,26.47
2023-06-10T10:08:52.123Z,26.46
2023-06-10T10:11:24.068Z,26.75
2023-06-10T10:13:53.768Z,26.60
2023-06-10T10:16:39.863Z,26.69
2023-06-10T10:19:22.103Z,26.96
2023-06-10T10:22:05.143Z,27.27
2023-06-10T10:25:04.342Z,27.16
2023-06-10T10:27:42.017Z,26.19
2023-06-10T10:30:15.583Z,26.01
2023-06-10T10:33:09.436Z,25.74
2023-06-10T10:35:42.980Z,25.96
2023-06-10T10:38:11.454Z,26.19
2023-06-10T10:40:40.889Z,26.08
2023-06-10T10:43:12.156Z,25.64
2023-06-10T10:45:43.043Z,25.14
2023-06-10T10:48:13.415Z,24.96
2023-06-10T10:50:44.539Z,24.63
2023-06-10T10:53:21.529Z,24.28
2023-06-10T10:56:00.948Z,24.08
2023-06-10T10:58:29.432Z,24.00
2023-06-10T11:00:59.405Z,23.96
2023-06-10T11:03:34.940Z,23.99
2023-06-10T11:06:14.020Z,24.00
2023-06-10T11:08:45.482Z,23.76
2023-06-10T11:11:27.244Z,23.70
2023-06-10T11:14:06.939Z,23.52
2023-06-10T11:16:42.134Z,23.51
2023-06-10T11:19:11.237Z,23.22
2023-06-10T11:22:00.898Z,22.75
2023-06-10T11:24:32.737Z,22.23
2023-06-10T11:27:27.758Z,21.92
2023-06-10T11:30:01.910Z,21.49
2023-06-10T11:32:35.441Z,21.21
2023-06-10T11:35:09.053Z,21.13
2023-06-10T11:37:38.324Z,21.03
2023-06-10T11:40:13.042Z,20.93
2023-06-10T11:42:45.396Z,20.79
2023-06-10T11:45:19.480Z,20.65
2023-06-10T11:48:01.666Z,20.52
2023-06-10T11:50:35.480Z,20.49
2023-06-10T11:53:04.222Z,20.57
2023-06-10T11:55:47.277Z,20.63
2023-06-10T11:58:20.556Z,20.66
2023-06-10T12:00:59.963Z,20.70
2023-06-10T12:03:39.964Z,20.76
2023-06-10T12:06:08.295Z,20.85
2023-06-10T12:08:43.609Z,20.86
2023-06-10T12:11:12.110Z,20.99
2023-06-10T12:13:50.902Z,21.02
2023-06-10T12:16:20.107Z,20.96
2023-06-10T12:18:50.055Z,20.90
2023-06-10T12:21:25.417Z,20.92
2023-06-10T12:24:11.005Z,20.85
2023-06-10T12:26:42.082Z,20.72
2023-06-10T12:29:32.061Z,20.72
2023-06-10T12:32:04.385Z,20.71
2023-06-10T12:34:41.927Z,20.82
2023-06-10T12:37:17.505Z,21.01
2023-06-10T12:39:53.911Z,21.11
2023-06-10T12:42:26.448Z,21.21
2023-06-10T12:44:55.507Z,21.25
2023-06-10T12:47:32.901Z,21.47
2023-06-10T12:50:03.155Z,21.50
2023-06-10T12:52:33.757Z,21.59
2023-06-10T12:55:02.542Z,21.94
2023-06-10T12:57:32.739Z,22.75
2023-06-10T13:00:05.681Z,23.67
2023-06-10T13:02:35.822Z,24.31
2023-06-10T13:05:05.191Z,25.02
2023-06-10T13:07:34.064Z,25.49
2023-06-10T13:10:03.697Z,25.94
2023-06-10T13:12:46.080Z,26.61
2023-06-10T13:15:17.070Z,27.36
2023-06-10T13:17:47.818Z,27.65
2023-06-10T13:20:19.973Z,27.91
2023-06-10T13:22:49.242Z,28.43
2023-06-10T13:25:19.512Z,28.73
2023-06-10T13:27:48.194Z,28.46
2023-06-10T13:30:16.697Z,28.79
2023-06-10T13:32:45.016Z,29.29
2023-06-10T13:35:14.280Z,29.07
2023-06-10T13:37:44.371Z,29.30
2023-06-10T13:40:12.902Z,30.10
2023-06-10T13:42:42.231Z,30.24
2023-06-10T13:45:11.224Z,30.52
2023-06-10T13:47:42.896Z,31.59
2023-06-10T13:50:11.430Z,31.53
2023-06-10T13:52:39.780Z,31.41
2023-06-10T13:55:08.756Z,31.37
2023-06-10T13:57:37.700Z,31.53
2023-06-10T14:00:07.324Z,32.33
2023-06-10T14:02:36.593Z,32.13
2023-06-10T14:05:07.896Z,32.02
2023-06-10T14:07:38.402Z,32.62
2023-06-10T14:10:07.420Z,33.11
2023-06-10T14:12:36.170Z,33.23
2023-06-10T14:15:04.879Z,32.98
2023-06-10T14:17:33.417Z,32.92
2023-06-10T14:20:01.982Z,33.40
2023-06-10T14:22:30.468Z,33.48
2023-06-10T14:25:00.101Z,33.56
2023-06-10T14:27:28.504Z,33.34
2023-06-10T14:29:56.791Z,33.97
2023-06-10T14:32:25.231Z,33.82
2023-06-10T14:34:53.683Z,34.14
2023-06-10T14:37:30.620Z,33.95
2023-06-10T14:39:58.911Z,33.93
2023-06-10T14:42:36.472Z,34.05
2023-06-10T14:45:07.131Z,34.26
2023-06-10T14:47:36.640Z,33.96
2023-06-10T14:50:05.896Z,33.73
2023-06-10T14:52:34.360Z,34.24
2023-06-10T14:55:03.632Z,34.07
2023-06-10T14:57:33.752Z,34.25
2023-06-10T15:00:03.811Z,34.09
2023-06-10T15:02:32.735Z,33.66
2023-06-10T15:05:01.276Z,34.41
2023-06-10T15:07:38.480Z,35.11
2023-06-10T15:10:07.592Z,34.99
2023-06-10T15:12:36.345Z,35.12
2023-06-10T15:15:05.325Z,34.80
2023-06-10T15:17:34.296Z,33.81
2023-06-10T15:20:02.915Z,33.92
2023-06-10T15:22:34.628Z,33.62
2023-06-10T15:25:25.917Z,32.56
2023-06-10T15:27:58.327Z,31.28
2023-06-10T15:30:26.981Z,30.70
2023-06-10T15:32:55.633Z,29.59
2023-06-10T15:35:24.232Z,28.78
2023-06-10T15:37:53.097Z,28.02
2023-06-10T15:40:21.956Z,27.34
2023-06-10T15:42:50.565Z,26.47
2023-06-10T15:45:19.016Z,25.67
2023-06-10T15:47:47.296Z,25.11
2023-06-10T15:50:15.571Z,24.49
2023-06-10T15:52:44.931Z,24.30
2023-06-10T15:55:13.709Z,23.94
2023-06-10T15:57:44.799Z,23.71
2023-06-10T16:00:13.686Z,23.44
2023-06-10T16:02:43.496Z,23.17
2023-06-10T16:05:12.189Z,22.97
2023-06-10T16:07:41.964Z,22.73
2023-06-10T16:10:10.713Z,22.49
2023-06-10T16:12:39.067Z,22.19
2023-06-10T16:15:08.164Z,21.97
2023-06-10T16:17:37.484Z,21.79
2023-06-10T16:20:06.945Z,21.70
2023-06-10T16:22:36.085Z,21.61
2023-06-10T16:25:04.633Z,21.55
2023-06-10T16:27:32.995Z,21.47
2023-06-10T16:30:01.373Z,21.43
2023-06-10T16:32:30.083Z,21.43
2023-06-10T16:34:58.403Z,21.44
2023-06-10T16:37:27.088Z,21.46
2023-06-10T16:39:55.248Z,21.48
2023-06-10T16:42:26.692Z,21.52
2023-06-10T16:44:54.957Z,21.52
2023-06-10T16:47:23.335Z,21.49
2023-06-10T16:49:51.968Z,21.48
2023-06-10T16:52:20.275Z,21.45
2023-06-10T16:54:49.167Z,21.41
2023-06-10T16:57:17.333Z,21.42
2023-06-10T16:59:46.090Z,21.42
2023-06-10T17:02:15.179Z,21.36
2023-06-10T17:04:43.963Z,21.31
2023-06-10T17:07:12.296Z,21.34
2023-06-10T17:09:40.564Z,21.33
2023-06-10T17:12:09.388Z,21.31
2023-06-10T17:14:38.600Z,21.32
2023-06-10T17:17:06.970Z,21.29
2023-06-10T17:19:35.117Z,21.24
2023-06-10T17:22:06.291Z,21.14
2023-06-10T17:24:35.833Z,21.08
2023-06-10T17:27:10.721Z,21.04
2023-06-10T17:29:40.501Z,20.99
2023-06-10T17:32:09.423Z,20.95
2023-06-10T17:34:38.713Z,20.89
2023-06-10T17:37:07.299Z,20.83
2023-06-10T17:39:35.778Z,20.78
2023-06-10T17:42:04.333Z,20.68
2023-06-10T17:44:33.746Z,20.66
2023-06-10T17:47:09.238Z,20.63
2023-06-10T17:49:37.601Z,20.59
2023-06-10T17:52:10.213Z,20.62
2023-06-10T17:54:38.562Z,20.62
2023-06-10T17:57:07.386Z,20.58
2023-06-10T17:59:35.761Z,20.55
2023-06-10T18:02:04.766Z,20.51
2023-06-10T18:04:33.908Z,20.50
2023-06-10T18:07:05.144Z,20.47
2023-06-10T18:09:33.995Z,20.48
2023-06-10T18:12:02.260Z,20.48
2023-06-10T18:14:33.351Z,20.46
2023-06-10T18:17:02.389Z,20.45
2023-06-10T18:19:30.747Z,20.43
2023-06-10T18:21:59.021Z,20.41
2023-06-10T18:24:27.937Z,20.38
2023-06-10T18:26:56.041Z,20.37
2023-06-10T18:29:25.770Z,20.28
2023-06-10T18:31:55.869Z,20.21
2023-06-10T18:34:25.407Z,20.06
2023-06-10T18:36:57.557Z,19.96
2023-06-10T18:39:25.805Z,19.86
2023-06-10T18:41:57.564Z,19.80
2023-06-10T18:44:28.034Z,19.70
2023-06-10T18:46:56.693Z,19.61
2023-06-10T18:49:25.549Z,19.50
2023-06-10T18:51:55.153Z,19.34
2023-06-10T18:54:26.186Z,19.26
2023-06-10T18:56:54.724Z,19.24
2023-06-10T18:59:22.815Z,19.21
2023-06-10T19:01:51.709Z,19.19
2023-06-10T19:04:21.260Z,19.14
2023-06-10T19:06:50.149Z,19.14
2023-06-10T19:09:20.270Z,19.09
2023-06-10T19:11:48.763Z,19.00
2023-06-10T19:14:17.143Z,18.89
2023-06-10T19:16:45.659Z,18.77
2023-06-10T19:19:14.144Z,18.67
2023-06-10T19:21:42.442Z,18.57
2023-06-10T19:24:11.462Z,18.49
2023-06-10T19:26:42.151Z,18.40
2023-06-10T19:29:11.170Z,18.33
2023-06-10T19:31:39.376Z,18.26
2023-06-10T19:34:07.725Z,18.18
2023-06-10T19:36:36.207Z,18.09
2023-06-10T19:39:04.403Z,18.03
2023-06-10T19:41:32.861Z,17.95
2023-06-10T19:44:01.112Z,17.86
2023-06-10T19:46:29.829Z,17.69
2023-06-10T19:48:59.616Z,17.58
2023-06-10T19:51:28.109Z,17.46
2023-06-10T19:54:00.724Z,17.38
2023-06-10T19:56:30.250Z,17.31
2023-06-10T19:58:58.906Z,17.25
2023-06-10T20:01:28.607Z,17.20
2023-06-10T20:03:56.841Z,17.19
2023-06-10T20:06:25.666Z,17.16
2023-06-10T20:08:55.484Z,17.13
2023-06-10T20:11:23.917Z,17.11
2023-06-10T20:13:52.453Z,17.10
2023-06-10T20:16:21.348Z,17.10
2023-06-10T20:18:56.457Z,17.10
2023-06-10T20:21:24.863Z,17.12
2023-06-10T20:23:54.157Z,17.12
2023-06-10T20:26:24.492Z,17.12
2023-06-10T20:28:52.757Z,17.09
2023-06-10T20:31:21.858Z,17.07
2023-06-10T20:33:51.361Z,17.03
2023-06-10T20:36:21.196Z,16.99
2023-06-10T20:38:52.266Z,16.94
2023-06-10T20:41:22.907Z,16.88
2023-06-10T20:43:51.461Z,16.79
2023-06-10T20:46:19.712Z,16.78
2023-06-10T20:48:50.330Z,16.74
2023-06-10T20:51:19.688Z,16.69
2023-06-10T20:53:48.055Z,16.63
2023-06-10T20:56:16.377Z,16.57
2023-06-10T20:58:44.556Z,16.49
2023-06-10T21:01:12.668Z,16.44
2023-06-10T21:03:41.583Z,16.38
2023-06-10T21:06:10.640Z,16.32
2023-06-10T21:08:39.017Z,16.27
2023-06-10T21:11:07.268Z,16.21
2023-06-10T21:13:35.461Z,16.14
2023-06-10T21:16:04.273Z,16.09
2023-06-10T21:18:32.826Z,16.04
2023-06-10T21:21:02.626Z,16.00
2023-06-10T21:23:32.148Z,15.95
2023-06-10T21:26:02.032Z,15.91
2023-06-10T21:28:30.210Z,15.90
2023-06-10T21:30:58.481Z,15.88
2023-06-10T21:33:27.937Z,15.88
2023-06-10T21:35:59.086Z,15.84
2023-06-10T21:38:27.686Z,15.84
2023-06-10T21:40:56.361Z,15.81
2023-06-10T21:43:24.649Z,15.81
2023-06-10T21:45:54.847Z,15.79
2023-06-10T21:48:25.592Z,15.76
2023-06-10T21:50:53.657Z,15.76
2023-06-10T21:53:22.047Z,15.76
2023-06-10T21:55:50.591Z,15.76
2023-06-10T21:58:18.859Z,15.76
2023-06-10T22:00:48.200Z,15.74
2023-06-10T22:03:17.640Z,15.71
2023-06-10T22:05:46.014Z,15.71
2023-06-10T22:08:14.310Z,15.70
2023-06-10T22:10:42.747Z,15.69
2023-06-10T22:13:14.001Z,15.68
2023-06-10T22:15:43.760Z,15.64
2023-06-10T22:18:12.108Z,15.60
2023-06-10T22:20:41.461Z,15.56
2023-06-10T22:23:09.658Z,15.53
2023-06-10T22:25:37.837Z,15.51
2023-06-10T22:28:06.367Z,15.47
2023-06-10T22:30:34.639Z,15.45
2023-06-10T22:33:02.874Z,15.42
2023-06-10T22:35:31.213Z,15.39
2023-06-10T22:37:59.295Z,15.38
2023-06-10T22:40:27.805Z,15.35
2023-06-10T22:43:00.489Z,15.33
2023-06-10T22:45:29.251Z,15.32
2023-06-10T22:47:58.303Z,15.31
2023-06-10T22:50:27.233Z,15.30
2023-06-10T22:52:55.453Z,15.30
2023-06-10T22:55:24.750Z,15.31
2023-06-10T22:57:53.886Z,15.31
2023-06-10T23:00:22.085Z,15.30
2023-06-10T23:02:50.369Z,15.27
2023-06-10T23:05:18.536Z,15.27
2023-06-10T23:07:46.621Z,15.26
2023-06-10T23:10:14.783Z,15.25
2023-06-10T23:12:44.416Z,15.22
2023-06-10T23:15:15.354Z,15.20
2023-06-10T23:17:46.229Z,15.15
2023-06-10T23:20:21.174Z,15.12
2023-06-10T23:22:53.611Z,15.08
2023-06-10T23:25:22.067Z,15.06
2023-06-10T23:27:50.532Z,15.03
2023-06-10T23:30:18.912Z,15.01
2023-06-10T23:32:47.477Z,14.98
2023-06-10T23:35:20.295Z,14.96
2023-06-10T23:37:48.538Z,14.94
2023-06-10T23:40:19.497Z,14.93
2023-06-10T23:42:48.020Z,14.91
2023-06-10T23:45:16.606Z,14.89
2023-06-10T23:47:44.900Z,14.86
2023-06-10T23:50:13.077Z,14.82
2023-06-10T23:52:41.232Z,14.76
2023-06-10T23:55:10.640Z,14.74
2023-06-10T23:57:38.972Z,14.68
